sensor_id;sensor_type;location;lat;lon;timestamp;temperature;humidity
67603;DHT22;54417;47.454;18.918;2023-12-07T00:02:12;0.96;99.85
67603;DHT22;54417;47.454;18.918;2023-12-07T00:07:22;0.93;99.93
67603;DHT22;54417;47.454;18.918;2023-12-07T00:12:31;0.97;99.74
67603;DHT22;54417;47.454;18.918;2023-12-07T00:17:40;0.92;99.69
67603;DHT22;54417;47.454;18.918;2023-12-07T00:22:50;0.96;99.70
67603;DHT22;54417;47.454;18.918;2023-12-07T00:27:58;0.95;99.46
67603;DHT22;54417;47.454;18.918;2023-12-07T00:33:07;0.86;99.61
67603;DHT22;54417;47.454;18.918;2023-12-07T00:38:17;0.89;99.56
67603;DHT22;54417;47.454;18.918;2023-12-07T00:43:28;0.93;99.38
67603;DHT22;54417;47.454;18.918;2023-12-07T00:48:37;0.76;99.54
67603;DHT22;54417;47.454;18.918;2023-12-07T00:53:47;0.78;99.59
67603;DHT22;54417;47.454;18.918;2023-12-07T00:58:56;0.78;99.66
67603;DHT22;54417;47.454;18.918;2023-12-07T01:04:04;0.82;99.59
67603;DHT22;54417;47.454;18.918;2023-12-07T01:09:15;0.79;99.48
67603;DHT22;54417;47.454;18.918;2023-12-07T01:14:23;0.73;99.73
67603;DHT22;54417;47.454;18.918;2023-12-07T01:19:32;0.71;99.84
67603;DHT22;54417;47.454;18.918;2023-12-07T01:24:43;0.68;99.90
67603;DHT22;54417;47.454;18.918;2023-12-07T01:29:52;0.61;99.99
67603;DHT22;54417;47.454;18.918;2023-12-07T01:35:00;0.55;99.99
67603;DHT22;54417;47.454;18.918;2023-12-07T01:40:11;0.54;99.99
67603;DHT22;54417;47.454;18.918;2023-12-07T01:45:22;0.52;99.99
67603;DHT22;54417;47.454;18.918;2023-12-07T01:50:26;0.50;99.99
67603;DHT22;54417;47.454;18.918;2023-12-07T01:55:33;0.52;99.99
67603;DHT22;54417;47.454;18.918;2023-12-07T02:00:42;0.54;99.99
67603;DHT22;54417;47.454;18.918;2023-12-07T02:05:51;0.51;99.99
67603;DHT22;54417;47.454;18.918;2023-12-07T02:11:02;0.50;99.99
67603;DHT22;54417;47.454;18.918;2023-12-07T02:16:15;0.48;99.99
67603;DHT22;54417;47.454;18.918;2023-12-07T02:21:31;0.48;99.99
67603;DHT22;54417;47.454;18.918;2023-12-07T02:26:43;0.47;99.99
67603;DHT22;54417;47.454;18.918;2023-12-07T02:31:47;0.44;99.99
67603;DHT22;54417;47.454;18.918;2023-12-07T02:36:58;0.45;99.99
67603;DHT22;54417;47.454;18.918;2023-12-07T02:42:09;0.41;99.99
67603;DHT22;54417;47.454;18.918;2023-12-07T02:47:19;0.41;99.99
67603;DHT22;54417;47.454;18.918;2023-12-07T02:52:28;0.41;99.99
67603;DHT22;54417;47.454;18.918;2023-12-07T02:57:38;0.42;99.99
67603;DHT22;54417;47.454;18.918;2023-12-07T03:02:47;0.40;99.99
67603;DHT22;54417;47.454;18.918;2023-12-07T03:07:57;0.41;99.99
67603;DHT22;54417;47.454;18.918;2023-12-07T03:13:07;0.41;99.99
67603;DHT22;54417;47.454;18.918;2023-12-07T03:18:16;0.41;99.99
67603;DHT22;54417;47.454;18.918;2023-12-07T03:23:20;0.44;99.99
67603;DHT22;54417;47.454;18.918;2023-12-07T03:28:31;0.47;99.99
67603;DHT22;54417;47.454;18.918;2023-12-07T03:33:41;0.50;99.99
67603;DHT22;54417;47.454;18.918;2023-12-07T03:38:50;0.47;99.99
67603;DHT22;54417;47.454;18.918;2023-12-07T03:44:00;0.48;99.99
67603;DHT22;54417;47.454;18.918;2023-12-07T03:49:09;0.51;99.99
67603;DHT22;54417;47.454;18.918;2023-12-07T03:54:18;0.59;99.99
67603;DHT22;54417;47.454;18.918;2023-12-07T03:59:28;0.57;99.99
67603;DHT22;54417;47.454;18.918;2023-12-07T04:04:37;0.52;99.99
67603;DHT22;54417;47.454;18.918;2023-12-07T04:09:47;0.50;99.99
67603;DHT22;54417;47.454;18.918;2023-12-07T04:14:52;0.52;99.99
67603;DHT22;54417;47.454;18.918;2023-12-07T04:20:00;0.55;99.99
67603;DHT22;54417;47.454;18.918;2023-12-07T04:25:09;0.54;99.99
67603;DHT22;54417;47.454;18.918;2023-12-07T04:30:20;0.58;99.99
67603;DHT22;54417;47.454;18.918;2023-12-07T04:35:28;0.64;99.99
67603;DHT22;54417;47.454;18.918;2023-12-07T04:40:37;0.69;99.99
67603;DHT22;54417;47.454;18.918;2023-12-07T04:45:47;0.66;99.99
67603;DHT22;54417;47.454;18.918;2023-12-07T04:50:56;0.65;99.99
67603;DHT22;54417;47.454;18.918;2023-12-07T04:56:00;0.71;99.99
67603;DHT22;54417;47.454;18.918;2023-12-07T05:01:10;0.79;99.99
67603;DHT22;54417;47.454;18.918;2023-12-07T05:06:19;0.76;99.99
67603;DHT22;54417;47.454;18.918;2023-12-07T05:11:23;0.76;99.99
67603;DHT22;54417;47.454;18.918;2023-12-07T05:16:33;0.85;99.99
67603;DHT22;54417;47.454;18.918;2023-12-07T05:21:42;0.88;99.99
67603;DHT22;54417;47.454;18.918;2023-12-07T05:26:51;0.85;99.97
67603;DHT22;54417;47.454;18.918;2023-12-07T05:32:02;0.92;99.69
67603;DHT22;54417;47.454;18.918;2023-12-07T05:37:11;0.93;99.67
67603;DHT22;54417;47.454;18.918;2023-12-07T05:42:20;0.90;99.69
67603;DHT22;54417;47.454;18.918;2023-12-07T05:47:26;0.89;99.74
67603;DHT22;54417;47.454;18.918;2023-12-07T05:52:34;0.96;99.73
67603;DHT22;54417;47.454;18.918;2023-12-07T05:57:45;0.95;99.59
67603;DHT22;54417;47.454;18.918;2023-12-07T06:02:55;0.92;99.38
67603;DHT22;54417;47.454;18.918;2023-12-07T06:08:04;0.83;99.46
67603;DHT22;54417;47.454;18.918;2023-12-07T06:13:13;0.88;99.49
67603;DHT22;54417;47.454;18.918;2023-12-07T06:18:24;0.85;99.49
67603;DHT22;54417;47.454;18.918;2023-12-07T06:23:32;0.88;99.47
67603;DHT22;54417;47.454;18.918;2023-12-07T06:28:37;0.90;99.20
67603;DHT22;54417;47.454;18.918;2023-12-07T06:33:48;0.99;99.30
67603;DHT22;54417;47.454;18.918;2023-12-07T06:38:56;0.99;99.35
67603;DHT22;54417;47.454;18.918;2023-12-07T06:44:06;0.89;99.16
67603;DHT22;54417;47.454;18.918;2023-12-07T06:49:13;0.90;99.27
67603;DHT22;54417;47.454;18.918;2023-12-07T06:54:22;0.93;99.25
67603;DHT22;54417;47.454;18.918;2023-12-07T06:59:31;1.01;99.11
67603;DHT22;54417;47.454;18.918;2023-12-07T07:04:41;1.01;99.05
67603;DHT22;54417;47.454;18.918;2023-12-07T07:09:51;1.07;99.04
67603;DHT22;54417;47.454;18.918;2023-12-07T07:14:55;1.15;98.80
67603;DHT22;54417;47.454;18.918;2023-12-07T07:20:07;1.00;98.66
67603;DHT22;54417;47.454;18.918;2023-12-07T07:25:16;0.96;98.81
67603;DHT22;54417;47.454;18.918;2023-12-07T07:30:21;0.93;98.59
67603;DHT22;54417;47.454;18.918;2023-12-07T07:35:32;0.86;98.88
67603;DHT22;54417;47.454;18.918;2023-12-07T07:40:40;0.80;98.79
67603;DHT22;54417;47.454;18.918;2023-12-07T07:45:50;0.83;98.94
67603;DHT22;54417;47.454;18.918;2023-12-07T07:51:00;0.88;99.05
67603;DHT22;54417;47.454;18.918;2023-12-07T07:56:10;0.88;99.01
67603;DHT22;54417;47.454;18.918;2023-12-07T08:01:19;0.92;99.02
67603;DHT22;54417;47.454;18.918;2023-12-07T08:06:29;0.92;98.90
67603;DHT22;54417;47.454;18.918;2023-12-07T08:11:41;0.80;99.05
67603;DHT22;54417;47.454;18.918;2023-12-07T08:16:50;0.90;99.26
67603;DHT22;54417;47.454;18.918;2023-12-07T08:21:55;1.01;99.06
67603;DHT22;54417;47.454;18.918;2023-12-07T08:27:04;1.06;98.95
67603;DHT22;54417;47.454;18.918;2023-12-07T08:32:15;1.17;98.67
67603;DHT22;54417;47.454;18.918;2023-12-07T08:37:27;1.19;98.19
67603;DHT22;54417;47.454;18.918;2023-12-07T08:42:36;1.36;98.10
67603;DHT22;54417;47.454;18.918;2023-12-07T08:47:45;1.41;97.87
67603;DHT22;54417;47.454;18.918;2023-12-07T08:52:55;1.37;97.69
67603;DHT22;54417;47.454;18.918;2023-12-07T08:58:11;1.33;97.64
67603;DHT22;54417;47.454;18.918;2023-12-07T09:03:20;1.37;97.52
67603;DHT22;54417;47.454;18.918;2023-12-07T09:08:34;1.44;97.24
67603;DHT22;54417;47.454;18.918;2023-12-07T09:13:43;1.40;97.45
67603;DHT22;54417;47.454;18.918;2023-12-07T09:18:49;1.40;97.40
67603;DHT22;54417;47.454;18.918;2023-12-07T09:23:59;1.47;97.45
67603;DHT22;54417;47.454;18.918;2023-12-07T09:29:08;1.52;97.21
67603;DHT22;54417;47.454;18.918;2023-12-07T09:34:17;1.61;97.02
67603;DHT22;54417;47.454;18.918;2023-12-07T09:39:27;1.54;96.89
67603;DHT22;54417;47.454;18.918;2023-12-07T09:44:36;1.52;97.18
67603;DHT22;54417;47.454;18.918;2023-12-07T09:49:40;1.46;97.18
67603;DHT22;54417;47.454;18.918;2023-12-07T09:54:51;1.51;97.07
67603;DHT22;54417;47.454;18.918;2023-12-07T10:00:01;1.48;96.81
67603;DHT22;54417;47.454;18.918;2023-12-07T10:05:14;1.54;96.84
67603;DHT22;54417;47.454;18.918;2023-12-07T10:10:25;1.67;96.35
67603;DHT22;54417;47.454;18.918;2023-12-07T10:15:34;1.62;96.50
67603;DHT22;54417;47.454;18.918;2023-12-07T10:20:45;1.81;96.43
67603;DHT22;54417;47.454;18.918;2023-12-07T10:25:58;1.75;96.67
67603;DHT22;54417;47.454;18.918;2023-12-07T10:31:08;1.75;96.18
67603;DHT22;54417;47.454;18.918;2023-12-07T10:36:13;1.59;96.61
67603;DHT22;54417;47.454;18.918;2023-12-07T10:41:24;1.64;96.80
67603;DHT22;54417;47.454;18.918;2023-12-07T10:46:33;1.72;96.83
67603;DHT22;54417;47.454;18.918;2023-12-07T10:51:47;1.71;96.48
67603;DHT22;54417;47.454;18.918;2023-12-07T10:56:58;1.75;96.46
67603;DHT22;54417;47.454;18.918;2023-12-07T11:02:12;1.57;97.00
67603;DHT22;54417;47.454;18.918;2023-12-07T11:07:29;1.51;97.04
67603;DHT22;54417;47.454;18.918;2023-12-07T11:12:45;1.54;96.70
67603;DHT22;54417;47.454;18.918;2023-12-07T11:17:51;1.62;96.67
67603;DHT22;54417;47.454;18.918;2023-12-07T11:23:04;1.48;96.40
67603;DHT22;54417;47.454;18.918;2023-12-07T11:28:15;1.46;96.55
67603;DHT22;54417;47.454;18.918;2023-12-07T11:33:28;1.52;96.94
67603;DHT22;54417;47.454;18.918;2023-12-07T11:38:38;1.55;96.88
67603;DHT22;54417;47.454;18.918;2023-12-07T11:43:50;1.69;96.72
67603;DHT22;54417;47.454;18.918;2023-12-07T11:49:01;2.01;96.21
67603;DHT22;54417;47.454;18.918;2023-12-07T11:54:10;2.38;95.64
67603;DHT22;54417;47.454;18.918;2023-12-07T11:59:20;2.40;94.51
67603;DHT22;54417;47.454;18.918;2023-12-07T12:04:40;2.41;95.13
67603;DHT22;54417;47.454;18.918;2023-12-07T12:09:49;2.44;95.32
67603;DHT22;54417;47.454;18.918;2023-12-07T12:14:59;2.40;94.70
67603;DHT22;54417;47.454;18.918;2023-12-07T12:20:09;2.38;94.65
67603;DHT22;54417;47.454;18.918;2023-12-07T12:25:26;2.16;94.46
67603;DHT22;54417;47.454;18.918;2023-12-07T12:30:32;2.17;95.63
67603;DHT22;54417;47.454;18.918;2023-12-07T12:35:42;2.20;95.19
67603;DHT22;54417;47.454;18.918;2023-12-07T12:40:51;2.07;95.05
67603;DHT22;54417;47.454;18.918;2023-12-07T12:46:03;2.07;95.13
67603;DHT22;54417;47.454;18.918;2023-12-07T12:51:14;1.88;95.69
67603;DHT22;54417;47.454;18.918;2023-12-07T12:56:23;1.71;96.24
67603;DHT22;54417;47.454;18.918;2023-12-07T13:01:33;1.64;96.87
67603;DHT22;54417;47.454;18.918;2023-12-07T13:06:42;1.50;96.58
67603;DHT22;54417;47.454;18.918;2023-12-07T13:11:51;1.38;97.29
67603;DHT22;54417;47.454;18.918;2023-12-07T13:16:56;1.28;97.34
67603;DHT22;54417;47.454;18.918;2023-12-07T13:22:05;1.33;98.05
67603;DHT22;54417;47.454;18.918;2023-12-07T13:27:14;1.38;98.25
67603;DHT22;54417;47.454;18.918;2023-12-07T13:32:25;1.43;97.77
67603;DHT22;54417;47.454;18.918;2023-12-07T13:37:29;1.40;98.19
67603;DHT22;54417;47.454;18.918;2023-12-07T13:42:38;1.41;98.22
67603;DHT22;54417;47.454;18.918;2023-12-07T13:47:48;1.52;97.70
67603;DHT22;54417;47.454;18.918;2023-12-07T13:52:57;1.46;97.72
67603;DHT22;54417;47.454;18.918;2023-12-07T13:58:01;1.51;97.72
67603;DHT22;54417;47.454;18.918;2023-12-07T14:03:11;1.55;97.60
67603;DHT22;54417;47.454;18.918;2023-12-07T14:08:20;1.57;97.53
67603;DHT22;54417;47.454;18.918;2023-12-07T14:13:29;1.55;97.30
67603;DHT22;54417;47.454;18.918;2023-12-07T14:18:41;1.55;97.18
67603;DHT22;54417;47.454;18.918;2023-12-07T14:24:03;1.54;97.46
67603;DHT22;54417;47.454;18.918;2023-12-07T14:29:07;1.41;97.49
67603;DHT22;54417;47.454;18.918;2023-12-07T14:34:24;1.34;97.76
67603;DHT22;54417;47.454;18.918;2023-12-07T14:39:42;1.37;97.47
67603;DHT22;54417;47.454;18.918;2023-12-07T14:44:46;1.20;98.14
67603;DHT22;54417;47.454;18.918;2023-12-07T14:49:52;1.10;98.21
67603;DHT22;54417;47.454;18.918;2023-12-07T14:55:01;0.99;98.64
67603;DHT22;54417;47.454;18.918;2023-12-07T15:00:12;1.01;98.38
67603;DHT22;54417;47.454;18.918;2023-12-07T15:05:18;0.96;98.97
67603;DHT22;54417;47.454;18.918;2023-12-07T15:10:27;0.96;99.10
67603;DHT22;54417;47.454;18.918;2023-12-07T15:15:35;0.97;99.49
67603;DHT22;54417;47.454;18.918;2023-12-07T15:20:46;0.99;99.33
67603;DHT22;54417;47.454;18.918;2023-12-07T15:25:55;1.01;99.21
67603;DHT22;54417;47.454;18.918;2023-12-07T15:31:04;0.99;99.16
67603;DHT22;54417;47.454;18.918;2023-12-07T15:36:15;1.03;98.74
67603;DHT22;54417;47.454;18.918;2023-12-07T15:41:24;0.97;98.74
67603;DHT22;54417;47.454;18.918;2023-12-07T15:46:34;0.97;99.15
67603;DHT22;54417;47.454;18.918;2023-12-07T15:51:44;1.01;99.30
67603;DHT22;54417;47.454;18.918;2023-12-07T15:56:47;1.03;98.92
67603;DHT22;54417;47.454;18.918;2023-12-07T16:01:57;1.01;99.02
67603;DHT22;54417;47.454;18.918;2023-12-07T16:07:07;0.99;98.89
67603;DHT22;54417;47.454;18.918;2023-12-07T16:12:17;0.97;99.25
67603;DHT22;54417;47.454;18.918;2023-12-07T16:17:26;0.97;99.20
67603;DHT22;54417;47.454;18.918;2023-12-07T16:22:33;1.03;99.23
67603;DHT22;54417;47.454;18.918;2023-12-07T16:27:41;0.97;99.30
67603;DHT22;54417;47.454;18.918;2023-12-07T16:32:50;1.06;98.69
67603;DHT22;54417;47.454;18.918;2023-12-07T16:38:01;1.07;98.88
67603;DHT22;54417;47.454;18.918;2023-12-07T16:43:09;1.06;99.00
67603;DHT22;54417;47.454;18.918;2023-12-07T16:48:18;1.06;98.79
67603;DHT22;54417;47.454;18.918;2023-12-07T16:53:30;1.04;98.80
67603;DHT22;54417;47.454;18.918;2023-12-07T16:58:33;1.06;99.07
67603;DHT22;54417;47.454;18.918;2023-12-07T17:03:43;1.04;99.20
67603;DHT22;54417;47.454;18.918;2023-12-07T17:08:55;1.07;98.96
67603;DHT22;54417;47.454;18.918;2023-12-07T17:14:20;1.06;98.95
67603;DHT22;54417;47.454;18.918;2023-12-07T17:19:29;1.09;98.66
67603;DHT22;54417;47.454;18.918;2023-12-07T17:24:49;1.12;98.49
67603;DHT22;54417;47.454;18.918;2023-12-07T17:29:58;1.23;98.08
67603;DHT22;54417;47.454;18.918;2023-12-07T17:35:07;1.28;97.70
67603;DHT22;54417;47.454;18.918;2023-12-07T17:40:20;1.16;98.27
67603;DHT22;54417;47.454;18.918;2023-12-07T17:45:29;1.13;98.33
67603;DHT22;54417;47.454;18.918;2023-12-07T17:50:37;1.07;98.80
67603;DHT22;54417;47.454;18.918;2023-12-07T17:55:48;1.07;99.14
67603;DHT22;54417;47.454;18.918;2023-12-07T18:00:56;1.09;99.06
67603;DHT22;54417;47.454;18.918;2023-12-07T18:06:09;1.16;98.92
67603;DHT22;54417;47.454;18.918;2023-12-07T18:11:20;1.19;98.62
67603;DHT22;54417;47.454;18.918;2023-12-07T18:16:24;1.26;98.38
67603;DHT22;54417;47.454;18.918;2023-12-07T18:21:33;1.26;98.53
67603;DHT22;54417;47.454;18.918;2023-12-07T18:26:38;1.38;98.47
67603;DHT22;54417;47.454;18.918;2023-12-07T18:31:47;1.43;98.55
67603;DHT22;54417;47.454;18.918;2023-12-07T18:36:51;1.46;98.58
67603;DHT22;54417;47.454;18.918;2023-12-07T18:42:01;1.40;98.47
67603;DHT22;54417;47.454;18.918;2023-12-07T18:47:09;1.38;98.55
67603;DHT22;54417;47.454;18.918;2023-12-07T18:52:18;1.40;98.54
67603;DHT22;54417;47.454;18.918;2023-12-07T18:57:24;1.46;98.47
67603;DHT22;54417;47.454;18.918;2023-12-07T19:02:33;1.40;98.34
67603;DHT22;54417;47.454;18.918;2023-12-07T19:07:42;1.37;98.42
67603;DHT22;54417;47.454;18.918;2023-12-07T19:12:52;1.26;98.71
67603;DHT22;54417;47.454;18.918;2023-12-07T19:18:03;1.30;98.65
67603;DHT22;54417;47.454;18.918;2023-12-07T19:23:12;1.40;98.57
67603;DHT22;54417;47.454;18.918;2023-12-07T19:28:22;1.34;98.46
67603;DHT22;54417;47.454;18.918;2023-12-07T19:33:31;1.26;98.80
67603;DHT22;54417;47.454;18.918;2023-12-07T19:38:41;1.24;98.83
67603;DHT22;54417;47.454;18.918;2023-12-07T19:43:51;1.33;98.71
67603;DHT22;54417;47.454;18.918;2023-12-07T19:48:59;1.34;98.61
67603;DHT22;54417;47.454;18.918;2023-12-07T19:54:09;1.43;98.61
67603;DHT22;54417;47.454;18.918;2023-12-07T19:59:19;1.52;98.49
67603;DHT22;54417;47.454;18.918;2023-12-07T20:04:27;1.41;98.36
67603;DHT22;54417;47.454;18.918;2023-12-07T20:09:36;1.38;98.34
67603;DHT22;54417;47.454;18.918;2023-12-07T20:14:41;1.31;98.41
67603;DHT22;54417;47.454;18.918;2023-12-07T20:19:51;1.31;98.49
67603;DHT22;54417;47.454;18.918;2023-12-07T20:25:00;1.20;98.79
67603;DHT22;54417;47.454;18.918;2023-12-07T20:30:11;1.03;99.41
67603;DHT22;54417;47.454;18.918;2023-12-07T20:35:20;0.96;99.54
67603;DHT22;54417;47.454;18.918;2023-12-07T20:40:30;0.90;99.71
67603;DHT22;54417;47.454;18.918;2023-12-07T20:45:40;0.89;99.90
67603;DHT22;54417;47.454;18.918;2023-12-07T20:50:49;0.82;99.99
67603;DHT22;54417;47.454;18.918;2023-12-07T20:55:58;0.76;99.99
67603;DHT22;54417;47.454;18.918;2023-12-07T21:01:08;0.75;99.99
67603;DHT22;54417;47.454;18.918;2023-12-07T21:06:20;0.75;99.99
67603;DHT22;54417;47.454;18.918;2023-12-07T21:11:28;0.82;99.99
67603;DHT22;54417;47.454;18.918;2023-12-07T21:16:39;0.93;99.99
67603;DHT22;54417;47.454;18.918;2023-12-07T21:21:49;1.00;99.96
67603;DHT22;54417;47.454;18.918;2023-12-07T21:26:58;0.93;99.76
67603;DHT22;54417;47.454;18.918;2023-12-07T21:32:08;0.86;99.96
67603;DHT22;54417;47.454;18.918;2023-12-07T21:37:11;0.92;99.89
67603;DHT22;54417;47.454;18.918;2023-12-07T21:42:20;1.00;99.63
67603;DHT22;54417;47.454;18.918;2023-12-07T21:47:30;0.95;99.43
67603;DHT22;54417;47.454;18.918;2023-12-07T21:52:39;0.86;99.48
67603;DHT22;54417;47.454;18.918;2023-12-07T21:57:48;0.78;99.85
67603;DHT22;54417;47.454;18.918;2023-12-07T22:02:54;0.88;99.71
67603;DHT22;54417;47.454;18.918;2023-12-07T22:08:03;0.83;99.81
67603;DHT22;54417;47.454;18.918;2023-12-07T22:13:12;0.95;99.70
67603;DHT22;54417;47.454;18.918;2023-12-07T22:18:22;1.00;99.70
67603;DHT22;54417;47.454;18.918;2023-12-07T22:23:31;1.15;99.62
67603;DHT22;54417;47.454;18.918;2023-12-07T22:28:35;1.12;99.41
67603;DHT22;54417;47.454;18.918;2023-12-07T22:33:45;1.13;99.37
67603;DHT22;54417;47.454;18.918;2023-12-07T22:39:07;1.17;99.09
67603;DHT22;54417;47.454;18.918;2023-12-07T22:44:16;1.00;98.97
67603;DHT22;54417;47.454;18.918;2023-12-07T22:49:26;1.01;98.98
67603;DHT22;54417;47.454;18.918;2023-12-07T22:54:39;0.71;98.83
67603;DHT22;54417;47.454;18.918;2023-12-07T22:59:47;0.51;99.22
67603;DHT22;54417;47.454;18.918;2023-12-07T23:04:57;0.28;98.71
67603;DHT22;54417;47.454;18.918;2023-12-07T23:10:07;0.04;98.43
67603;DHT22;54417;47.454;18.918;2023-12-07T23:15:16;-0.35;99.86
67603;DHT22;54417;47.454;18.918;2023-12-07T23:20:26;-0.61;99.41
67603;DHT22;54417;47.454;18.918;2023-12-07T23:25:35;-0.75;99.20
67603;DHT22;54417;47.454;18.918;2023-12-07T23:30:43;-0.99;98.54
67603;DHT22;54417;47.454;18.918;2023-12-07T23:35:54;-1.11;99.99
67603;DHT22;54417;47.454;18.918;2023-12-07T23:40:57;-1.18;99.99
67603;DHT22;54417;47.454;18.918;2023-12-07T23:46:07;-1.27;99.77
67603;DHT22;54417;47.454;18.918;2023-12-07T23:51:18;-1.43;99.94
67603;DHT22;54417;47.454;18.918;2023-12-07T23:56:26;-1.55;99.99
